メインページ
METAR-TAF:

METAR-TAF

空港 :

仙台空港

仙台, 日本

緯度: 38-08N, 経度: 140-55E, 海抜: 1m

現時点の気象観測

当レポートは17分前の09:00(UTC)に作成
西/南西の風 4kt
気温 4°C
湿度 60%
気圧 1020 hPa
視程10km以上
高度2000ftの雲はほとんどない

METAR: RJSS 130900Z 25004KT 9999 FEW020 04/M03 Q1020

時間: 18:17 (09:17 UTC)

予報

当レポートは4時間12分前の05:05(UTC)に作成
予報は13日の 06時(UTC)から 14日の 12時(UTC)まで有効
の風 5kt
視程10km以上
高度2000ftの雲はほとんどない
高度4000ftの千切れ雲あり
13日の 07時(UTC)から 13日の 09時(UTC)まで徐々に
西/南西の風 4kt
13日の 18時(UTC)から 13日の 21時(UTC)まで徐々に
西/北西の風 18kt
13日の 21時(UTC)から 14日の 06時(UTC)まで一時的に
西/北西の風 20kt、最大30ktの突風を伴う
14日の 06時(UTC)から 14日の 09時(UTC)まで徐々に
北/北西の風 8kt

TAF: RJSS 130505Z 1306/1412 08005KT 9999 FEW020 BKN040 BECMG 1307/1309 24004KT BECMG 1318/1321 30018KT TEMPO 1321/1406 30020G30KT BECMG 1406/1409 34008KT

4,000以上の空港の気象観測と天気予報(METAR報とTAF報)

利用可能な観測所は地図上に黄色い丸と赤い丸で示す。

丸の上にカーソルを重ねると観測所名を参照できる。

次にクリックすると気象観測と天気予報を参照できる。

マップの切り替え:黒色「×」印の緑ボタンをクリックして拡大、「-」印の緑ボタンをクリックして縮小、緑色の三角印をクリックして隣りの地図に切り替え


METAR-TAF: